createdAt,value
2022-09-15T00:00:07.579Z,29.54
2022-09-15T00:00:37.608Z,29.53
2022-09-15T00:01:07.644Z,29.56
2022-09-15T00:01:37.741Z,29.56
2022-09-15T00:02:07.873Z,29.54
2022-09-15T00:02:37.793Z,29.56
2022-09-15T00:03:07.920Z,29.54
2022-09-15T00:03:37.814Z,29.54
2022-09-15T00:04:07.845Z,29.56
2022-09-15T00:04:37.874Z,29.53
2022-09-15T00:05:07.908Z,29.57
2022-09-15T00:05:37.941Z,29.54
2022-09-15T00:06:07.970Z,29.54
2022-09-15T00:06:38.000Z,29.53
2022-09-15T00:07:08.040Z,29.57
2022-09-15T00:07:38.066Z,29.54
2022-09-15T00:08:08.116Z,29.53
2022-09-15T00:08:38.130Z,29.53
2022-09-15T00:09:08.163Z,29.54
2022-09-15T00:09:38.189Z,29.53
2022-09-15T00:10:08.218Z,29.53
2022-09-15T00:10:38.248Z,29.54
2022-09-15T00:11:08.282Z,29.54
2022-09-15T00:11:38.317Z,29.53
2022-09-15T00:12:08.353Z,29.53
2022-09-15T00:12:38.380Z,29.54
2022-09-15T00:13:08.417Z,29.53
2022-09-15T00:13:38.443Z,29.54
2022-09-15T00:14:08.471Z,29.54
2022-09-15T00:14:38.506Z,29.53
2022-09-15T00:15:08.538Z,29.51
2022-09-15T00:15:38.565Z,29.53
2022-09-15T00:16:08.678Z,29.51
2022-09-15T00:16:38.709Z,29.53
2022-09-15T00:17:08.725Z,29.54
2022-09-15T00:17:38.642Z,29.51
2022-09-15T00:18:08.677Z,29.51
2022-09-15T00:18:38.704Z,29.51
2022-09-15T00:19:08.735Z,29.51
2022-09-15T00:19:38.731Z,29.51
2022-09-15T00:20:08.842Z,29.54
2022-09-15T00:20:38.836Z,29.54
2022-09-15T00:21:08.956Z,29.54
2022-09-15T00:21:39.072Z,29.51
2022-09-15T00:22:09.194Z,29.53
2022-09-15T00:22:39.185Z,29.54
2022-09-15T00:23:09.308Z,29.51
2022-09-15T00:23:39.445Z,29.51
2022-09-15T00:24:09.416Z,29.53
2022-09-15T00:24:39.534Z,29.53
2022-09-15T00:25:09.652Z,29.53
2022-09-15T00:25:39.647Z,29.54
2022-09-15T00:26:09.765Z,29.54
2022-09-15T00:26:39.903Z,29.51
2022-09-15T00:27:09.898Z,29.53
2022-09-15T00:27:39.890Z,29.50
2022-09-15T00:28:10.013Z,29.51
2022-09-15T00:28:40.130Z,29.51
2022-09-15T00:29:10.126Z,29.49
2022-09-15T00:29:40.160Z,29.50
2022-09-15T00:30:10.187Z,29.50
2022-09-15T00:30:40.280Z,29.51
2022-09-15T00:31:10.419Z,29.50
2022-09-15T00:31:40.325Z,29.53
2022-09-15T00:32:10.357Z,29.51
2022-09-15T00:32:40.391Z,29.50
2022-09-15T00:33:10.421Z,29.49
2022-09-15T00:33:40.453Z,29.50
2022-09-15T00:34:10.492Z,29.50
2022-09-15T00:34:40.522Z,29.51
2022-09-15T00:35:10.555Z,29.50
2022-09-15T00:35:40.586Z,29.50
2022-09-15T00:36:10.615Z,29.50
2022-09-15T00:36:40.647Z,29.49
2022-09-15T00:37:10.690Z,29.47
2022-09-15T00:37:40.719Z,29.49
2022-09-15T00:38:10.747Z,29.50
2022-09-15T00:38:40.778Z,29.47
2022-09-15T00:39:10.837Z,29.50
2022-09-15T00:39:40.840Z,29.50
2022-09-15T00:40:10.967Z,29.47
2022-09-15T00:40:40.986Z,29.47
2022-09-15T00:41:11.017Z,29.49
2022-09-15T00:41:41.050Z,29.47
2022-09-15T00:42:11.083Z,29.46
2022-09-15T00:42:41.115Z,29.47
2022-09-15T00:43:11.151Z,29.46
2022-09-15T00:43:41.211Z,29.49
2022-09-15T00:44:11.253Z,29.49
2022-09-15T00:44:41.279Z,29.47
2022-09-15T00:45:11.308Z,29.44
2022-09-15T00:45:41.413Z,29.49
2022-09-15T00:46:11.477Z,29.49
2022-09-15T00:46:41.491Z,29.47
2022-09-15T00:47:19.993Z,29.44
2022-09-15T00:47:41.584Z,29.44
2022-09-15T00:48:11.610Z,29.47
2022-09-15T00:48:41.645Z,29.47
2022-09-15T00:49:11.677Z,29.46
2022-09-15T00:49:41.705Z,29.47
2022-09-15T00:50:11.739Z,29.46
2022-09-15T00:50:41.769Z,29.44
2022-09-15T00:51:11.800Z,29.47
2022-09-15T00:51:41.835Z,29.46
2022-09-15T00:52:11.871Z,29.46
2022-09-15T00:52:41.898Z,29.46
2022-09-15T00:53:11.931Z,29.47
2022-09-15T00:53:41.970Z,29.47
2022-09-15T00:54:11.996Z,29.46
2022-09-15T00:54:42.122Z,29.47
2022-09-15T00:55:12.115Z,29.46
2022-09-15T00:55:42.152Z,29.46
2022-09-15T00:56:12.178Z,29.46
2022-09-15T00:56:42.236Z,29.44
2022-09-15T00:57:12.271Z,29.44
2022-09-15T00:57:42.304Z,29.43
2022-09-15T00:58:12.336Z,29.47
2022-09-15T00:58:42.372Z,29.43
2022-09-15T00:59:12.404Z,29.46
2022-09-15T00:59:42.440Z,29.43
2022-09-15T01:00:12.467Z,29.47
2022-09-15T01:00:42.534Z,29.43
2022-09-15T01:01:12.560Z,29.47
2022-09-15T01:01:42.774Z,29.46
2022-09-15T01:02:12.704Z,29.46
2022-09-15T01:02:42.793Z,29.44
2022-09-15T01:03:12.809Z,29.46
2022-09-15T01:03:42.845Z,29.44
2022-09-15T01:04:12.878Z,29.44
2022-09-15T01:04:42.919Z,29.44
2022-09-15T01:05:12.938Z,29.46
2022-09-15T01:05:42.969Z,29.47
2022-09-15T01:06:13.008Z,29.46
2022-09-15T01:06:43.059Z,29.46
2022-09-15T01:07:13.093Z,29.44
2022-09-15T01:07:43.127Z,29.47
2022-09-15T01:08:13.154Z,29.44
2022-09-15T01:08:43.187Z,29.44
2022-09-15T01:09:13.221Z,29.43
2022-09-15T01:09:43.254Z,29.46
2022-09-15T01:10:13.307Z,29.44
2022-09-15T01:10:43.329Z,29.43
2022-09-15T01:11:13.355Z,29.43
2022-09-15T01:11:43.410Z,29.43
2022-09-15T01:12:13.437Z,29.41
2022-09-15T01:12:43.466Z,29.41
2022-09-15T01:13:13.502Z,29.43
2022-09-15T01:13:43.540Z,29.41
2022-09-15T01:14:13.566Z,29.44
2022-09-15T01:14:43.610Z,29.43
2022-09-15T01:15:13.623Z,29.43
2022-09-15T01:15:43.661Z,29.40
2022-09-15T01:16:13.795Z,29.41
2022-09-15T01:16:43.784Z,29.40
2022-09-15T01:17:13.810Z,29.41
2022-09-15T01:17:43.837Z,29.40
2022-09-15T01:18:13.873Z,29.41
2022-09-15T01:18:43.913Z,29.40
2022-09-15T01:19:13.927Z,29.40
2022-09-15T01:19:43.929Z,29.41
2022-09-15T01:20:13.923Z,29.43
2022-09-15T01:20:44.035Z,29.41
2022-09-15T01:21:14.034Z,29.41
2022-09-15T01:21:44.040Z,29.39
2022-09-15T01:22:14.033Z,29.41
2022-09-15T01:22:44.027Z,29.43
2022-09-15T01:23:14.039Z,29.41
2022-09-15T01:23:44.018Z,29.41
2022-09-15T01:24:14.139Z,29.41
2022-09-15T01:24:44.134Z,29.43
2022-09-15T01:25:14.253Z,29.40
2022-09-15T01:25:44.392Z,29.41
2022-09-15T01:26:14.374Z,29.41
2022-09-15T01:26:44.384Z,29.39
2022-09-15T01:27:40.449Z,29.41
2022-09-15T01:27:44.392Z,29.40
2022-09-15T01:28:14.518Z,29.37
2022-09-15T01:28:44.505Z,29.39
2022-09-15T01:29:14.510Z,29.40
2022-09-15T01:29:44.542Z,29.37
2022-09-15T01:30:14.569Z,29.39
2022-09-15T01:30:44.609Z,29.40
2022-09-15T01:31:14.669Z,29.37
2022-09-15T01:31:45.091Z,29.39
2022-09-15T01:32:14.723Z,29.40
2022-09-15T01:32:44.757Z,29.40
2022-09-15T01:33:14.791Z,29.39
2022-09-15T01:33:44.830Z,29.40
2022-09-15T01:34:14.863Z,29.41
2022-09-15T01:34:44.894Z,29.39
2022-09-15T01:35:14.930Z,29.39
2022-09-15T01:35:44.984Z,29.36
2022-09-15T01:36:14.988Z,29.40
2022-09-15T01:36:45.021Z,29.37
2022-09-15T01:37:15.058Z,29.39
2022-09-15T01:37:45.083Z,29.39
2022-09-15T01:38:15.117Z,29.37
2022-09-15T01:38:45.150Z,29.39
2022-09-15T01:39:15.176Z,29.37
2022-09-15T01:39:45.273Z,29.34
2022-09-15T01:40:15.481Z,29.39
2022-09-15T01:40:45.401Z,29.39
2022-09-15T01:41:15.449Z,29.37
2022-09-15T01:41:45.467Z,29.39
2022-09-15T01:42:15.499Z,29.37
2022-09-15T01:42:45.529Z,29.39
2022-09-15T01:43:15.563Z,29.37
2022-09-15T01:43:45.594Z,29.36
2022-09-15T01:44:15.628Z,29.34
2022-09-15T01:44:45.654Z,29.37
2022-09-15T01:45:15.687Z,29.36
2022-09-15T01:45:45.784Z,29.39
2022-09-15T01:46:15.908Z,29.36
2022-09-15T01:46:45.822Z,29.36
2022-09-15T01:47:15.849Z,29.34
2022-09-15T01:47:45.880Z,29.34
2022-09-15T01:48:15.915Z,29.37
2022-09-15T01:48:45.954Z,29.36
2022-09-15T01:49:15.985Z,29.39
2022-09-15T01:49:46.020Z,29.37
2022-09-15T01:50:16.047Z,29.36
2022-09-15T01:50:46.078Z,29.36
2022-09-15T01:51:16.120Z,29.36
2022-09-15T01:51:46.161Z,29.34
2022-09-15T01:52:16.190Z,29.36
2022-09-15T01:52:46.313Z,29.36
2022-09-15T01:53:16.301Z,29.36
2022-09-15T01:53:46.330Z,29.36
2022-09-15T01:54:16.362Z,29.36
2022-09-15T01:54:46.393Z,29.34
2022-09-15T01:55:16.421Z,29.36
2022-09-15T01:55:46.455Z,29.36
2022-09-15T01:56:16.486Z,29.34
2022-09-15T01:56:46.547Z,29.36
2022-09-15T01:57:16.557Z,29.37
2022-09-15T01:57:46.586Z,29.34
2022-09-15T01:58:16.610Z,29.34
2022-09-15T01:58:46.644Z,29.33
2022-09-15T01:59:16.680Z,29.36
2022-09-15T01:59:46.705Z,29.34
2022-09-15T02:00:16.741Z,29.34
2022-09-15T02:00:46.826Z,29.34
2022-09-15T02:01:16.964Z,29.36
2022-09-15T02:01:46.933Z,29.34
2022-09-15T02:02:17.026Z,29.34
2022-09-15T02:02:47.047Z,29.33
2022-09-15T02:03:17.081Z,29.33
2022-09-15T02:03:47.113Z,29.34
2022-09-15T02:04:17.148Z,29.33
2022-09-15T02:04:47.190Z,29.34
2022-09-15T02:05:17.206Z,29.33
2022-09-15T02:05:47.237Z,29.32
2022-09-15T02:06:17.290Z,29.32
2022-09-15T02:06:47.320Z,29.30
2022-09-15T02:07:17.353Z,29.32
2022-09-15T02:07:47.379Z,29.30
2022-09-15T02:08:17.415Z,29.33
2022-09-15T02:08:47.453Z,29.30
2022-09-15T02:09:17.475Z,29.30
2022-09-15T02:09:47.504Z,29.29
2022-09-15T02:10:17.541Z,29.30
2022-09-15T02:10:47.570Z,29.30
2022-09-15T02:11:17.606Z,29.30
2022-09-15T02:11:47.653Z,29.32
2022-09-15T02:12:17.702Z,29.29
2022-09-15T02:12:47.715Z,29.30
2022-09-15T02:13:17.749Z,29.30
2022-09-15T02:13:47.784Z,29.32
2022-09-15T02:14:17.812Z,29.30
2022-09-15T02:14:47.865Z,29.30
2022-09-15T02:15:17.897Z,29.30
2022-09-15T02:15:47.923Z,29.30
2022-09-15T02:16:18.036Z,29.32
2022-09-15T02:16:48.128Z,29.32
2022-09-15T02:17:18.167Z,29.29
2022-09-15T02:17:48.195Z,29.29
2022-09-15T02:18:18.221Z,29.30
2022-09-15T02:18:48.253Z,29.30
2022-09-15T02:19:18.269Z,29.32
2022-09-15T02:19:48.271Z,29.30
2022-09-15T02:20:18.382Z,29.32
2022-09-15T02:20:48.501Z,29.30
2022-09-15T02:21:18.493Z,29.30
2022-09-15T02:21:48.510Z,29.28
2022-09-15T02:22:18.497Z,29.29
2022-09-15T02:22:48.617Z,29.29
2022-09-15T02:23:18.614Z,29.28
2022-09-15T02:23:48.731Z,29.26
2022-09-15T02:24:18.725Z,29.26
2022-09-15T02:24:48.721Z,29.28
2022-09-15T02:25:18.838Z,29.29
2022-09-15T02:25:48.833Z,29.29
2022-09-15T02:26:18.952Z,29.28
2022-09-15T02:26:49.084Z,29.28
2022-09-15T02:27:19.072Z,29.26
2022-09-15T02:27:49.098Z,29.26
2022-09-15T02:28:19.065Z,29.28
2022-09-15T02:28:49.182Z,29.26
2022-09-15T02:29:19.194Z,29.28
2022-09-15T02:29:49.221Z,29.29
2022-09-15T02:30:19.244Z,29.26
2022-09-15T02:30:49.279Z,29.26
2022-09-15T02:31:19.408Z,29.26
2022-09-15T02:31:49.407Z,29.26
2022-09-15T02:32:19.349Z,29.28
2022-09-15T02:32:49.387Z,29.26
2022-09-15T02:33:19.417Z,29.26
2022-09-15T02:33:49.447Z,29.28
2022-09-15T02:34:19.481Z,29.29
2022-09-15T02:34:49.517Z,29.28
2022-09-15T02:35:19.546Z,29.25
2022-09-15T02:35:49.576Z,29.28
2022-09-15T02:36:19.613Z,29.28
2022-09-15T02:36:49.647Z,29.25
2022-09-15T02:37:19.677Z,29.29
2022-09-15T02:37:49.710Z,29.30
2022-09-15T02:38:19.736Z,29.28
2022-09-15T02:38:49.770Z,29.28
2022-09-15T02:39:19.797Z,29.28
2022-09-15T02:39:49.862Z,29.26
2022-09-15T02:40:19.997Z,29.26
2022-09-15T02:40:49.942Z,29.28
2022-09-15T02:41:19.975Z,29.28
2022-09-15T02:41:50.014Z,29.28
2022-09-15T02:42:20.042Z,29.25
2022-09-15T02:42:50.076Z,29.26
2022-09-15T02:43:20.133Z,29.25
2022-09-15T02:43:50.140Z,29.25
2022-09-15T02:44:20.168Z,29.26
2022-09-15T02:44:50.204Z,29.28
2022-09-15T02:45:20.405Z,29.26
2022-09-15T02:45:50.359Z,29.26
2022-09-15T02:46:20.372Z,29.25
2022-09-15T02:46:50.408Z,29.23
2022-09-15T02:47:20.436Z,29.23
2022-09-15T02:47:50.466Z,29.23
2022-09-15T02:48:20.498Z,29.23
2022-09-15T02:48:50.530Z,29.25
2022-09-15T02:49:20.565Z,29.25
2022-09-15T02:49:50.593Z,29.25
2022-09-15T02:50:20.627Z,29.23
2022-09-15T02:50:50.665Z,29.23
2022-09-15T02:51:20.693Z,29.25
2022-09-15T02:51:50.754Z,29.23
2022-09-15T02:52:20.789Z,29.23
2022-09-15T02:52:50.816Z,29.23
2022-09-15T02:53:20.848Z,29.23
2022-09-15T02:53:51.133Z,29.25
2022-09-15T02:54:20.950Z,29.25
2022-09-15T02:54:50.982Z,29.25
2022-09-15T02:55:21.014Z,29.23
2022-09-15T02:55:51.046Z,29.22
2022-09-15T02:56:21.079Z,29.21
2022-09-15T02:56:51.117Z,29.25
2022-09-15T02:57:21.158Z,29.22
2022-09-15T02:57:51.189Z,29.23
2022-09-15T02:58:21.217Z,29.25
2022-09-15T02:58:51.268Z,29.26
2022-09-15T02:59:21.279Z,29.23
2022-09-15T02:59:51.310Z,29.23
2022-09-15T03:00:21.340Z,29.22
2022-09-15T03:00:51.480Z,29.23
2022-09-15T03:01:21.414Z,29.22
2022-09-15T03:01:51.555Z,29.22
2022-09-15T03:02:21.537Z,29.22
2022-09-15T03:02:51.454Z,29.22
2022-09-15T03:03:21.481Z,29.25
2022-09-15T03:03:51.516Z,29.22
2022-09-15T03:04:21.546Z,29.22
2022-09-15T03:04:51.572Z,29.23
2022-09-15T03:05:21.601Z,29.21
2022-09-15T03:05:51.639Z,29.23
2022-09-15T03:06:21.665Z,29.23
2022-09-15T03:06:51.709Z,29.19
2022-09-15T03:07:21.738Z,29.21
2022-09-15T03:07:51.775Z,29.19
2022-09-15T03:08:21.800Z,29.21
2022-09-15T03:08:51.986Z,29.22
2022-09-15T03:09:21.827Z,29.23
2022-09-15T03:09:51.862Z,29.22
2022-09-15T03:10:21.892Z,29.22
2022-09-15T03:10:51.918Z,29.22
2022-09-15T03:11:21.954Z,29.19
2022-09-15T03:11:51.987Z,29.19
2022-09-15T03:12:22.013Z,29.19
2022-09-15T03:12:52.037Z,29.19
2022-09-15T03:13:22.071Z,29.19
2022-09-15T03:13:52.176Z,29.22
2022-09-15T03:14:22.198Z,29.21
2022-09-15T03:14:52.212Z,29.21
2022-09-15T03:15:22.240Z,29.17
2022-09-15T03:15:52.327Z,29.21
2022-09-15T03:16:22.431Z,29.21
2022-09-15T03:16:52.471Z,29.22
2022-09-15T03:17:22.523Z,29.19
2022-09-15T03:17:52.530Z,29.19
2022-09-15T03:18:22.556Z,29.17
2022-09-15T03:18:52.592Z,29.17
2022-09-15T03:19:22.597Z,29.19
2022-09-15T03:19:52.600Z,29.21
2022-09-15T03:20:22.590Z,29.19
2022-09-15T03:20:52.581Z,29.22
2022-09-15T03:21:22.700Z,29.19
2022-09-15T03:21:52.823Z,29.19
2022-09-15T03:22:22.815Z,29.17
2022-09-15T03:22:52.814Z,29.17
2022-09-15T03:23:22.809Z,29.21
2022-09-15T03:23:52.929Z,29.17
2022-09-15T03:24:22.923Z,29.17
2022-09-15T03:24:52.918Z,29.16
2022-09-15T03:25:23.039Z,29.17
2022-09-15T03:25:53.034Z,29.17
2022-09-15T03:26:23.024Z,29.16
2022-09-15T03:26:53.161Z,29.16
2022-09-15T03:27:23.155Z,29.17
2022-09-15T03:27:53.154Z,29.19
2022-09-15T03:28:23.269Z,29.14
2022-09-15T03:28:53.382Z,29.16
2022-09-15T03:29:23.298Z,29.16
2022-09-15T03:29:53.352Z,29.14
2022-09-15T03:30:23.360Z,29.16
2022-09-15T03:30:53.393Z,29.17
2022-09-15T03:31:23.472Z,29.17
2022-09-15T03:31:53.505Z,29.14
2022-09-15T03:32:23.526Z,29.16
2022-09-15T03:32:53.556Z,29.13
2022-09-15T03:33:23.590Z,29.14
2022-09-15T03:33:53.625Z,29.14
2022-09-15T03:34:23.653Z,29.13
2022-09-15T03:34:57.732Z,29.13
2022-09-15T03:35:23.742Z,29.12
2022-09-15T03:35:53.787Z,29.12
2022-09-15T03:36:23.814Z,29.09
2022-09-15T03:36:53.851Z,29.10
2022-09-15T03:37:23.885Z,29.10
2022-09-15T03:37:53.914Z,29.07
2022-09-15T03:38:23.951Z,29.09
2022-09-15T03:38:53.985Z,29.09
2022-09-15T03:39:24.013Z,29.07
2022-09-15T03:39:54.097Z,29.09
2022-09-15T03:40:24.326Z,29.10
2022-09-15T03:40:54.194Z,29.10
2022-09-15T03:41:24.221Z,29.07
2022-09-15T03:41:54.270Z,29.07
2022-09-15T03:42:24.296Z,29.09
2022-09-15T03:42:54.327Z,29.07
2022-09-15T03:43:24.358Z,29.06
2022-09-15T03:43:54.387Z,29.07
2022-09-15T03:44:24.422Z,29.06
2022-09-15T03:44:54.453Z,29.07
2022-09-15T03:45:24.565Z,29.10
2022-09-15T03:45:54.630Z,29.10
2022-09-15T03:46:24.667Z,29.12
2022-09-15T03:46:54.703Z,29.10
2022-09-15T03:47:24.736Z,29.09
2022-09-15T03:47:54.767Z,29.12
2022-09-15T03:48:24.798Z,29.10
2022-09-15T03:48:54.835Z,29.10
2022-09-15T03:49:24.865Z,29.13
2022-09-15T03:49:54.894Z,29.12
2022-09-15T03:50:24.929Z,29.13
2022-09-15T03:50:54.965Z,29.14
2022-09-15T03:51:24.995Z,29.13
2022-09-15T03:51:55.029Z,29.13
2022-09-15T03:52:25.065Z,29.12
2022-09-15T03:52:58.749Z,29.16
2022-09-15T03:53:25.112Z,29.13
2022-09-15T03:53:55.147Z,29.12
2022-09-15T03:54:25.173Z,29.14
2022-09-15T03:54:55.218Z,29.16
2022-09-15T03:55:25.240Z,29.16
2022-09-15T03:55:55.273Z,29.13
2022-09-15T03:56:25.306Z,29.16
2022-09-15T03:56:55.360Z,29.16
2022-09-15T03:57:25.389Z,29.19
2022-09-15T03:57:55.423Z,29.17
2022-09-15T03:58:30.067Z,29.17
2022-09-15T03:58:55.511Z,29.17
2022-09-15T03:59:25.562Z,29.19
2022-09-15T03:59:55.580Z,29.19
2022-09-15T04:00:25.614Z,29.17
2022-09-15T04:00:55.735Z,29.19
2022-09-15T04:01:25.730Z,29.19
2022-09-15T04:01:55.809Z,29.19
2022-09-15T04:02:25.843Z,29.21
2022-09-15T04:02:55.871Z,29.19
2022-09-15T04:03:25.897Z,29.22
2022-09-15T04:03:55.927Z,29.19
2022-09-15T04:04:25.960Z,29.21
2022-09-15T04:04:55.984Z,29.22
2022-09-15T04:05:26.017Z,29.22
2022-09-15T04:05:56.050Z,29.22
2022-09-15T04:06:26.077Z,29.21
2022-09-15T04:06:56.125Z,29.21
2022-09-15T04:07:26.159Z,29.21
2022-09-15T04:07:56.184Z,29.25
2022-09-15T04:08:26.217Z,29.21
2022-09-15T04:08:56.252Z,29.22
2022-09-15T04:09:26.282Z,29.21
2022-09-15T04:09:56.314Z,29.23
2022-09-15T04:10:26.352Z,29.23
2022-09-15T04:10:56.381Z,29.23
2022-09-15T04:11:26.416Z,29.21
2022-09-15T04:11:56.450Z,29.23
2022-09-15T04:12:26.483Z,29.22
2022-09-15T04:12:56.510Z,29.23
2022-09-15T04:13:28.709Z,29.21
2022-09-15T04:13:56.575Z,29.23
2022-09-15T04:14:26.612Z,29.22
2022-09-15T04:14:56.645Z,29.22
2022-09-15T04:15:26.674Z,29.21
2022-09-15T04:15:56.767Z,29.23
2022-09-15T04:16:26.851Z,29.23
2022-09-15T04:16:56.789Z,29.22
2022-09-15T04:17:26.822Z,29.23
2022-09-15T04:17:56.855Z,29.22
2022-09-15T04:18:26.887Z,29.23
2022-09-15T04:18:56.918Z,29.22
2022-09-15T04:19:26.919Z,29.25
2022-09-15T04:19:57.040Z,29.22
2022-09-15T04:20:27.031Z,29.21
2022-09-15T04:20:57.147Z,29.21
2022-09-15T04:21:27.296Z,29.22
2022-09-15T04:21:57.282Z,29.21
2022-09-15T04:22:27.398Z,29.21
2022-09-15T04:22:57.512Z,29.23
2022-09-15T04:23:27.508Z,29.23
2022-09-15T04:23:57.625Z,29.22
2022-09-15T04:24:27.743Z,29.23
2022-09-15T04:24:57.746Z,29.22
2022-09-15T04:25:27.860Z,29.21
2022-09-15T04:25:57.978Z,29.23
2022-09-15T04:26:28.137Z,29.26
2022-09-15T04:26:58.137Z,29.21
2022-09-15T04:27:28.132Z,29.23
2022-09-15T04:27:58.249Z,29.22
2022-09-15T04:28:28.371Z,29.22
2022-09-15T04:29:03.001Z,29.22
2022-09-15T04:29:28.407Z,29.23
2022-09-15T04:29:58.442Z,29.22
2022-09-15T04:30:28.473Z,29.21
2022-09-15T04:30:58.522Z,29.19
2022-09-15T04:31:28.621Z,29.21
2022-09-15T04:31:58.683Z,29.19
2022-09-15T04:32:28.691Z,29.17
2022-09-15T04:32:58.727Z,29.19
2022-09-15T04:33:28.756Z,29.21
2022-09-15T04:33:58.788Z,29.16
2022-09-15T04:34:28.822Z,29.17
2022-09-15T04:34:58.854Z,29.19
2022-09-15T04:35:28.885Z,29.19
2022-09-15T04:35:58.921Z,29.19
2022-09-15T04:36:28.963Z,29.21
2022-09-15T04:36:58.991Z,29.21
2022-09-15T04:37:29.024Z,29.21
2022-09-15T04:37:59.051Z,29.21
2022-09-15T04:38:29.078Z,29.23
2022-09-15T04:38:59.112Z,29.19
2022-09-15T04:39:29.146Z,29.19
2022-09-15T04:39:59.275Z,29.22
2022-09-15T04:40:29.344Z,29.21
2022-09-15T04:40:59.388Z,29.19
2022-09-15T04:41:29.432Z,29.22
2022-09-15T04:41:59.466Z,29.21
2022-09-15T04:42:29.502Z,29.21
2022-09-15T04:42:59.530Z,29.21
2022-09-15T04:43:29.560Z,29.21
2022-09-15T04:43:59.614Z,29.19
2022-09-15T04:44:29.648Z,29.21
2022-09-15T04:44:59.675Z,29.19
2022-09-15T04:45:29.710Z,29.17
2022-09-15T04:45:59.741Z,29.16
2022-09-15T04:46:29.837Z,29.21
2022-09-15T04:46:59.947Z,29.19
2022-09-15T04:47:29.904Z,29.19
2022-09-15T04:47:59.921Z,29.17
2022-09-15T04:48:29.947Z,29.17
2022-09-15T04:48:59.982Z,29.16
2022-09-15T04:49:30.014Z,29.14
2022-09-15T04:50:00.045Z,29.14
2022-09-15T04:50:30.075Z,29.17
2022-09-15T04:51:00.140Z,29.16
2022-09-15T04:51:30.186Z,29.16
2022-09-15T04:52:00.226Z,29.17
2022-09-15T04:52:30.261Z,29.14
2022-09-15T04:53:00.297Z,29.13
2022-09-15T04:53:30.331Z,29.10
2022-09-15T04:54:00.362Z,29.14
2022-09-15T04:54:30.399Z,29.13
2022-09-15T04:55:00.449Z,29.13
2022-09-15T04:55:30.464Z,29.12
2022-09-15T04:56:00.504Z,29.10
2022-09-15T04:56:30.544Z,29.10
2022-09-15T04:57:00.591Z,29.10
2022-09-15T04:57:30.624Z,29.07
2022-09-15T04:58:00.659Z,29.06
2022-09-15T04:58:30.691Z,29.07
2022-09-15T04:59:03.981Z,29.06
2022-09-15T04:59:30.843Z,29.06
2022-09-15T05:00:00.872Z,29.06
2022-09-15T05:00:30.925Z,29.06
2022-09-15T05:01:00.986Z,29.06
2022-09-15T05:01:31.164Z,29.06
2022-09-15T05:02:01.156Z,29.07
2022-09-15T05:02:31.263Z,29.07
2022-09-15T05:03:01.276Z,29.06
2022-09-15T05:03:31.310Z,29.03
2022-09-15T05:04:01.347Z,29.06
2022-09-15T05:04:31.381Z,29.06
2022-09-15T05:05:01.409Z,29.06
2022-09-15T05:05:31.444Z,29.05
2022-09-15T05:06:01.475Z,29.03
2022-09-15T05:06:31.506Z,29.03
2022-09-15T05:07:01.546Z,29.06
2022-09-15T05:07:31.581Z,29.05
2022-09-15T05:08:01.610Z,29.05
2022-09-15T05:08:31.648Z,29.05
2022-09-15T05:09:04.404Z,29.05
2022-09-15T05:09:31.692Z,29.03
2022-09-15T05:10:01.726Z,29.06
2022-09-15T05:10:31.754Z,29.02
2022-09-15T05:11:01.784Z,29.03
2022-09-15T05:11:31.816Z,29.01
2022-09-15T05:12:01.861Z,29.02
2022-09-15T05:12:31.887Z,29.05
2022-09-15T05:13:01.924Z,29.03
2022-09-15T05:13:31.960Z,29.01
2022-09-15T05:14:01.987Z,29.02
2022-09-15T05:14:32.017Z,29.02
2022-09-15T05:15:02.062Z,29.01
2022-09-15T05:15:32.078Z,29.02
2022-09-15T05:16:02.159Z,29.01
2022-09-15T05:16:32.267Z,29.01
2022-09-15T05:17:02.204Z,29.03
2022-09-15T05:17:32.237Z,29.02
2022-09-15T05:18:02.301Z,29.02
2022-09-15T05:18:32.302Z,29.02
2022-09-15T05:19:02.335Z,29.02
2022-09-15T05:19:32.329Z,29.02
2022-09-15T05:20:02.445Z,29.02
2022-09-15T05:20:32.445Z,29.02
2022-09-15T05:21:02.444Z,29.05
2022-09-15T05:21:32.561Z,29.03
2022-09-15T05:22:02.608Z,29.02
2022-09-15T05:22:32.601Z,29.01
2022-09-15T05:23:02.716Z,29.05
2022-09-15T05:23:32.832Z,29.05
2022-09-15T05:24:02.834Z,29.07
2022-09-15T05:24:32.828Z,29.07
2022-09-15T05:25:02.948Z,29.06
2022-09-15T05:25:32.944Z,29.07
2022-09-15T05:26:03.060Z,29.09
2022-09-15T05:26:33.176Z,29.09
2022-09-15T05:27:03.301Z,29.12
2022-09-15T05:27:33.292Z,29.13
2022-09-15T05:28:03.407Z,29.12
2022-09-15T05:28:33.405Z,29.12
2022-09-15T05:29:03.405Z,29.13
2022-09-15T05:29:33.431Z,29.13
2022-09-15T05:30:31.759Z,29.13
2022-09-15T05:30:38.795Z,29.19
2022-09-15T05:31:03.619Z,29.12
2022-09-15T05:31:33.726Z,29.13
2022-09-15T05:32:03.689Z,29.14
2022-09-15T05:32:33.883Z,29.13
2022-09-15T05:33:03.790Z,29.14
2022-09-15T05:33:33.913Z,29.14
2022-09-15T05:34:03.919Z,29.14
2022-09-15T05:34:33.943Z,29.14
2022-09-15T05:35:03.978Z,29.14
2022-09-15T05:35:34.006Z,29.17
2022-09-15T05:36:04.038Z,29.16
2022-09-15T05:36:34.083Z,29.16
2022-09-15T05:37:04.113Z,29.21
2022-09-15T05:37:34.151Z,29.17
2022-09-15T05:38:04.181Z,29.17
2022-09-15T05:38:34.210Z,29.22
2022-09-15T05:39:04.238Z,29.21
2022-09-15T05:39:34.273Z,29.22
2022-09-15T05:40:08.469Z,29.21
2022-09-15T05:40:34.383Z,29.21
2022-09-15T05:41:04.391Z,29.22
2022-09-15T05:41:34.430Z,29.19
2022-09-15T05:42:04.461Z,29.21
2022-09-15T05:42:34.491Z,29.22
2022-09-15T05:43:04.524Z,29.21
2022-09-15T05:43:34.559Z,29.21
2022-09-15T05:44:04.588Z,29.22
2022-09-15T05:44:34.620Z,29.21
2022-09-15T05:45:04.652Z,29.02
2022-09-15T05:45:34.682Z,29.10
2022-09-15T05:46:04.809Z,29.09
2022-09-15T05:46:34.822Z,29.05
2022-09-15T05:47:04.854Z,29.03
2022-09-15T05:47:34.883Z,28.95
2022-09-15T05:48:04.920Z,28.85
2022-09-15T05:48:34.957Z,28.82
2022-09-15T05:49:04.998Z,28.78
2022-09-15T05:49:35.008Z,28.78
2022-09-15T05:50:05.042Z,28.71
2022-09-15T05:50:35.073Z,28.71
2022-09-15T05:51:05.129Z,28.70
2022-09-15T05:51:35.157Z,28.66
2022-09-15T05:52:05.202Z,28.63
2022-09-15T05:52:35.236Z,28.58
2022-09-15T05:53:05.263Z,28.52
2022-09-15T05:53:35.297Z,28.48
2022-09-15T05:54:05.333Z,28.50
2022-09-15T05:54:35.360Z,28.48
2022-09-15T05:55:05.390Z,28.48
2022-09-15T05:55:35.423Z,28.46
2022-09-15T05:56:05.448Z,28.41
2022-09-15T05:56:35.484Z,28.40
2022-09-15T05:57:05.523Z,28.40
2022-09-15T05:57:35.551Z,28.39
2022-09-15T05:58:05.584Z,28.37
2022-09-15T05:58:35.615Z,28.36
2022-09-15T05:59:05.645Z,28.36
2022-09-15T05:59:35.679Z,28.34
2022-09-15T06:00:05.770Z,28.30
2022-09-15T06:00:35.775Z,28.29
2022-09-15T06:01:05.807Z,28.24
2022-09-15T06:01:35.897Z,28.24
2022-09-15T06:02:06.059Z,28.20
2022-09-15T06:02:36.057Z,28.18
2022-09-15T06:03:06.078Z,28.19
2022-09-15T06:03:35.980Z,28.15
2022-09-15T06:04:06.003Z,28.15
2022-09-15T06:04:36.057Z,28.16
2022-09-15T06:05:06.066Z,28.13
2022-09-15T06:05:36.096Z,28.12
2022-09-15T06:06:06.121Z,28.12
2022-09-15T06:06:36.150Z,28.11
2022-09-15T06:07:06.196Z,28.09
2022-09-15T06:07:36.223Z,28.09
2022-09-15T06:08:06.260Z,28.06
2022-09-15T06:08:36.295Z,28.05
2022-09-15T06:09:06.321Z,28.02
2022-09-15T06:09:36.356Z,28.04
2022-09-15T06:10:06.450Z,28.04
2022-09-15T06:10:36.448Z,28.04
2022-09-15T06:11:06.478Z,28.04
2022-09-15T06:11:36.511Z,27.99
2022-09-15T06:12:06.540Z,28.04
2022-09-15T06:12:36.572Z,28.04
2022-09-15T06:13:06.601Z,27.99
2022-09-15T06:13:36.632Z,27.99
2022-09-15T06:14:06.671Z,28.04
2022-09-15T06:14:36.696Z,28.04
2022-09-15T06:15:06.723Z,28.08
2022-09-15T06:15:36.756Z,28.09
2022-09-15T06:16:06.858Z,28.09
2022-09-15T06:16:36.920Z,28.12
2022-09-15T06:17:06.944Z,28.15
2022-09-15T06:17:36.979Z,28.16
2022-09-15T06:18:07.019Z,28.20
2022-09-15T06:18:37.057Z,28.23
2022-09-15T06:19:07.086Z,28.26
2022-09-15T06:19:37.206Z,28.30
2022-09-15T06:20:07.221Z,28.30
2022-09-15T06:20:37.318Z,28.34
2022-09-15T06:21:07.315Z,28.36
2022-09-15T06:21:37.322Z,28.41
2022-09-15T06:22:07.313Z,28.41
2022-09-15T06:22:37.303Z,28.46
2022-09-15T06:23:07.303Z,28.47
2022-09-15T06:23:37.411Z,28.48
2022-09-15T06:24:07.609Z,28.52
2022-09-15T06:24:37.565Z,28.55
2022-09-15T06:25:07.682Z,28.55
2022-09-15T06:25:37.674Z,28.57
2022-09-15T06:26:07.792Z,28.63
2022-09-15T06:26:37.927Z,28.63